Maersk Nimes — VRFO7 — position and weather

sailwx.info

Track history (hours):
 
Tides and Currents Weather Stations Pressure Air Temp Water Temp Dewpoint Dewpoint Depression Visibility Wind Speed Wind Dir Waves Ship Positions

Maersk Nimes

Last reported at 2015-May-24 04:34 UTC. Time now 2015-May-24 05:07 UTC.
Position N 38°57' W 030°11'.

Length 210 m; draft 10 m.

Type: Cargo ship. MMSI: 477559200.

Date/timePositionNaut miles runAvg speedWind from/ knotsBaromVisibWave heightAir tempDewpointWater temp
2015-May-24 04:34N 38°57' W 030°11'1716.7
2015-May-24 03:33N 39°04' W 029°52'1717.1
2015-May-24 02:33N 39°12' W 029°33'1716.7
2015-May-24 01:34N 39°21' W 029°14'1716.7
2015-May-24 00:33N 39°29' W 028°56'1716.9
2015-May-23 23:33N 39°38' W 028°37'1717.2
2015-May-23 22:33N 39°48' W 028°18'1817.1
2015-May-23 21:31N 39°57' W 027°59'  
2015-May-20 19:33N 49°55' W 003°08'1515.1
2015-May-20 18:33N 49°59' W 002°45'1916.7
2015-May-20 17:26N 50°05' W 002°17'1818.8
2015-May-20 16:29N 50°11' W 001°51'4119.7
2015-May-20 14:24N 50°21' W 000°49'4816.7
2015-May-20 11:31N 50°34' E 000°25'1414.4
2015-May-20 10:33N 50°41' E 000°43'1615.6
2015-May-20 09:33N 50°51' E 001°01'1818.3
2015-May-20 08:33N 51°03' E 001°24'1919.3
2015-May-20 07:33N 51°15' E 001°48'1514.6
2015-May-20 06:33N 51°24' E 002°07'1515.3
2015-May-20 05:33N 51°23' E 002°31'1313.3
2015-May-20 04:33N 51°22' E 002°52'1313.0
2015-May-20 03:33N 51°25' E 003°13'1313.1
2015-May-20 02:33N 51°26' E 003°34'8 7.6
2015-May-20 01:33N 51°22' E 003°45'10 9.7
2015-May-20 00:34N 51°26' E 003°59'9 8.9
2015-May-19 23:33N 51°24' E 004°13'6 6.1
2015-May-19 22:33N 51°18' E 004°16'0 0.0
2015-May-19 21:33N 51°18' E 004°16'0 0.0
2015-May-19 20:33N 51°18' E 004°16'0 0.0
2015-May-19 19:33N 51°18' E 004°16'0 0.0
2015-May-19 18:33N 51°18' E 004°16'0 0.0
2015-May-19 17:33N 51°18' E 004°16'0 0.0
2015-May-19 16:33N 51°18' E 004°16'0 0.0
2015-May-19 15:33N 51°18' E 004°16'0 0.0
2015-May-19 14:33N 51°18' E 004°16'0 0.0
2015-May-19 13:33N 51°18' E 004°16'1 1.2
2015-May-19 12:33N 51°19' E 004°16'6 5.7
2015-May-19 11:33N 51°23' E 004°09'7 7.1
2015-May-19 10:33N 51°26' E 003°59'9 8.9
2015-May-19 09:33N 51°21' E 003°48'9 9.1
2015-May-19 08:33N 51°26' E 003°35'1111.1
2015-May-19 07:33N 51°24' E 003°17'1111.3
2015-May-19 06:33N 51°27' E 002°60'1515.2
2015-May-19 05:33N 51°41' E 003°12'8 7.4
2015-May-19 04:32N 51°48' E 003°14'10 9.6
2015-May-19 03:30N 51°58' E 003°18'9 8.5
2015-May-19 02:26N 52°04' E 003°30'9 9.9
2015-May-19 01:33N 52°04' E 003°44'8 8.0
2015-May-19 00:33N 52°03' E 003°56'1111.1
2015-May-18 23:33N 51°57' E 004°11'8 8.2
2015-May-18 22:33N 51°54' E 004°24'1 1.2
2015-May-18 21:33N 51°53' E 004°26'0 0.0
2015-May-18 20:33N 51°53' E 004°26'0 0.0
2015-May-18 19:33N 51°53' E 004°26'0 0.0
2015-May-18 18:33N 51°53' E 004°26'0 0.0
2015-May-18 17:33N 51°53' E 004°26'0 0.0
2015-May-18 16:33N 51°53' E 004°26'0 0.0
2015-May-18 15:33N 51°53' E 004°26'0 0.0
2015-May-18 14:33N 51°53' E 004°26'0 0.0
2015-May-18 13:33N 51°53' E 004°26'1 1.1
2015-May-18 12:33N 51°54' E 004°24'7 7.5
2015-May-18 11:34N 51°56' E 004°13'1010.5
2015-May-18 10:33N 52°00' E 003°57'7 7.5
2015-May-18 09:33N 52°04' E 003°46'1414.0
2015-May-18 08:33N 52°18' E 003°47'1616.0
2015-May-18 07:33N 52°34' E 003°51'1716.7
2015-May-18 06:33N 52°50' E 003°58'1616.2
2015-May-18 05:33N 53°04' E 004°12'1716.1
2015-May-18 04:29N 53°17' E 004°30'1414.9
2015-May-18 03:33N 53°29' E 004°42'1515.5
2015-May-18 02:33N 53°35' E 005°06'1616.4
2015-May-18 01:34N 53°41' E 005°32'1716.6
2015-May-18 00:33N 53°47' E 005°59'1716.8
2015-May-17 23:33N 53°51' E 006°26'3021.2
2015-May-17 22:10N 53°58' E 007°15'4 6.1
2015-May-17 21:33N 53°59' E 007°21'1413.8
2015-May-17 20:33N 53°55' E 007°44'10 9.6
2015-May-17 19:33N 53°51' E 007°59'1414.1
2015-May-17 18:33N 53°43' E 008°18'1010.0
2015-May-17 17:32N 53°36' E 008°31'0 0.0
2015-May-17 16:32N 53°36' E 008°31'0 0.0
2015-May-17 15:32N 53°36' E 008°31'0 0.0
2015-May-17 14:32N 53°36' E 008°31'0 0.0
2015-May-17 13:32N 53°36' E 008°31'0 0.0
2015-May-17 12:32N 53°36' E 008°31'0 0.0
2015-May-17 11:32N 53°36' E 008°31'0 0.0
2015-May-17 10:32N 53°36' E 008°31'0 0.0
2015-May-17 09:32N 53°36' E 008°31'0 0.0
2015-May-17 08:29N 53°36' E 008°31'0 0.0
2015-May-17 07:32N 53°36' E 008°31'0 0.0
2015-May-17 06:29N 53°36' E 008°31'0 0.0
2015-May-17 05:32N 53°36' E 008°31'0 0.0
2015-May-17 04:29N 53°36' E 008°31'0 0.0
2015-May-17 03:32N 53°36' E 008°31'3 3.3
2015-May-17 02:33N 53°38' E 008°27'9 9.0
2015-May-17 01:33N 53°44' E 008°15'1111.1
2015-May-17 00:33N 53°51' E 008°01'6 5.6
2015-May-16 23:32N 53°54' E 007°53'0 0.1
2015-May-16 22:32N 53°54' E 007°53'0 0.0
2015-May-16 21:32N 53°54' E 007°53'0 0.0
2015-May-16 20:32N 53°54' E 007°53'0 0.0
2015-May-16 19:32N 53°54' E 007°53'0 0.0
2015-May-16 18:32N 53°54' E 007°53'0 0.0
2015-May-16 17:29N 53°54' E 007°53'0 0.0
2015-May-16 16:32N 53°54' E 007°53'0 0.0
2015-May-16 15:32N 53°54' E 007°53'0 0.0
2015-May-16 14:32N 53°54' E 007°53'0 0.1
2015-May-16 13:29N 53°54' E 007°53'0 0.1
2015-May-16 12:24N 53°54' E 007°52'2 2.4
2015-May-16 11:33N 53°52' E 007°52'1413.7
2015-May-16 10:33N 53°45' E 008°12'1313.2
2015-May-16 09:34N 53°37' E 008°29'2 2.1
2015-May-16 08:33N 53°35' E 008°31'0 0.0
2015-May-16 07:33N 53°35' E 008°31'0 0.0
2015-May-16 06:33N 53°35' E 008°31'0 0.0
2015-May-16 05:33N 53°35' E 008°31'0 0.0
2015-May-16 04:33N 53°35' E 008°31'0 0.0
2015-May-16 03:33N 53°35' E 008°31'7 7.3
2015-May-16 02:33N 53°40' E 008°22'1312.5
2015-May-16 01:33N 53°49' E 008°07'1312.6
2015-May-16 00:33N 53°53' E 007°46'1010.1
2015-May-15 23:33N 54°00' E 007°35'1312.9
2015-May-15 22:33N 54°12' E 007°25'1313.3
2015-May-15 21:33N 54°24' E 007°17'1313.3
2015-May-15 20:33N 54°37' E 007°08'1413.6
2015-May-15 19:33N 54°49' E 006°60'1413.6
2015-May-15 18:33N 55°02' E 006°51'1413.7
2015-May-15 17:33N 55°15' E 006°43'1413.4
2015-May-15 16:32N 55°28' E 006°44'1313.7
2015-May-15 15:33N 55°41' E 006°49'1513.8
2015-May-15 14:27N 55°56' E 006°55'16512.6
2015-May-15 01:21N 57°49' E 010°34'911.7
2015-May-15 00:33N 57°46' E 010°51'1414.3
2015-May-14 23:33N 57°36' E 011°10'1414.3
2015-May-14 22:34N 57°25' E 011°28'1414.5
2015-May-14 21:34N 57°12' E 011°36'1514.8
2015-May-14 20:33N 56°58' E 011°46'1414.3
2015-May-14 19:34N 56°44' E 011°51'1514.5
2015-May-14 18:33N 56°31' E 011°39'1514.4
2015-May-14 17:33N 56°19' E 011°25'1414.1
2015-May-14 16:32N 56°07' E 011°11'8712.5
2015-May-14 09:34N 54°41' E 010°47'1413.7
2015-May-14 08:33N 54°35' E 011°09'1413.6
2015-May-14 07:34N 54°31' E 011°31'1413.7
2015-May-14 06:33N 54°27' E 011°54'1212.4
2015-May-14 05:33N 54°31' E 012°14'  
Track history (hours):
 
Tides and Currents Weather Stations Pressure Air Temp Water Temp Dewpoint Dewpoint Depression Visibility Wind Speed Wind Dir Waves Ship Positions

Maersk Nimes

Last reported at 2015-May-24 04:34 UTC. Time now 2015-May-24 05:07 UTC.
Position N 38°57' W 030°11'.

Length 210 m; draft 10 m.

Type: Cargo ship. MMSI: 477559200.

Date/timePositionNaut miles runAvg speedWind from/ knotsBaromVisibWave heightAir tempDewpointWater temp
2015-May-24 04:34N 38°57' W 030°11'1716.7
2015-May-24 03:33N 39°04' W 029°52'1717.1
2015-May-24 02:33N 39°12' W 029°33'1716.7
2015-May-24 01:34N 39°21' W 029°14'1716.7
2015-May-24 00:33N 39°29' W 028°56'1716.9
2015-May-23 23:33N 39°38' W 028°37'1717.2
2015-May-23 22:33N 39°48' W 028°18'1817.1
2015-May-23 21:31N 39°57' W 027°59'  
2015-May-20 19:33N 49°55' W 003°08'1515.1
2015-May-20 18:33N 49°59' W 002°45'1916.7
2015-May-20 17:26N 50°05' W 002°17'1818.8
2015-May-20 16:29N 50°11' W 001°51'4119.7
2015-May-20 14:24N 50°21' W 000°49'4816.7
2015-May-20 11:31N 50°34' E 000°25'1414.4
2015-May-20 10:33N 50°41' E 000°43'1615.6
2015-May-20 09:33N 50°51' E 001°01'1818.3
2015-May-20 08:33N 51°03' E 001°24'1919.3
2015-May-20 07:33N 51°15' E 001°48'1514.6
2015-May-20 06:33N 51°24' E 002°07'1515.3
2015-May-20 05:33N 51°23' E 002°31'1313.3
2015-May-20 04:33N 51°22' E 002°52'1313.0
2015-May-20 03:33N 51°25' E 003°13'1313.1
2015-May-20 02:33N 51°26' E 003°34'8 7.6
2015-May-20 01:33N 51°22' E 003°45'10 9.7
2015-May-20 00:34N 51°26' E 003°59'9 8.9
2015-May-19 23:33N 51°24' E 004°13'6 6.1
2015-May-19 22:33N 51°18' E 004°16'0 0.0
2015-May-19 21:33N 51°18' E 004°16'0 0.0
2015-May-19 20:33N 51°18' E 004°16'0 0.0
2015-May-19 19:33N 51°18' E 004°16'0 0.0
2015-May-19 18:33N 51°18' E 004°16'0 0.0
2015-May-19 17:33N 51°18' E 004°16'0 0.0
2015-May-19 16:33N 51°18' E 004°16'0 0.0
2015-May-19 15:33N 51°18' E 004°16'0 0.0
2015-May-19 14:33N 51°18' E 004°16'0 0.0
2015-May-19 13:33N 51°18' E 004°16'1 1.2
2015-May-19 12:33N 51°19' E 004°16'6 5.7
2015-May-19 11:33N 51°23' E 004°09'7 7.1
2015-May-19 10:33N 51°26' E 003°59'9 8.9
2015-May-19 09:33N 51°21' E 003°48'9 9.1
2015-May-19 08:33N 51°26' E 003°35'1111.1
2015-May-19 07:33N 51°24' E 003°17'1111.3
2015-May-19 06:33N 51°27' E 002°60'1515.2
2015-May-19 05:33N 51°41' E 003°12'8 7.4
2015-May-19 04:32N 51°48' E 003°14'10 9.6
2015-May-19 03:30N 51°58' E 003°18'9 8.5
2015-May-19 02:26N 52°04' E 003°30'9 9.9
2015-May-19 01:33N 52°04' E 003°44'8 8.0
2015-May-19 00:33N 52°03' E 003°56'1111.1
2015-May-18 23:33N 51°57' E 004°11'8 8.2
2015-May-18 22:33N 51°54' E 004°24'1 1.2
2015-May-18 21:33N 51°53' E 004°26'0 0.0
2015-May-18 20:33N 51°53' E 004°26'0 0.0
2015-May-18 19:33N 51°53' E 004°26'0 0.0
2015-May-18 18:33N 51°53' E 004°26'0 0.0
2015-May-18 17:33N 51°53' E 004°26'0 0.0
2015-May-18 16:33N 51°53' E 004°26'0 0.0
2015-May-18 15:33N 51°53' E 004°26'0 0.0
2015-May-18 14:33N 51°53' E 004°26'0 0.0
2015-May-18 13:33N 51°53' E 004°26'1 1.1
2015-May-18 12:33N 51°54' E 004°24'7 7.5
2015-May-18 11:34N 51°56' E 004°13'1010.5
2015-May-18 10:33N 52°00' E 003°57'7 7.5
2015-May-18 09:33N 52°04' E 003°46'1414.0
2015-May-18 08:33N 52°18' E 003°47'1616.0
2015-May-18 07:33N 52°34' E 003°51'1716.7
2015-May-18 06:33N 52°50' E 003°58'1616.2
2015-May-18 05:33N 53°04' E 004°12'1716.1
2015-May-18 04:29N 53°17' E 004°30'1414.9
2015-May-18 03:33N 53°29' E 004°42'1515.5
2015-May-18 02:33N 53°35' E 005°06'1616.4
2015-May-18 01:34N 53°41' E 005°32'1716.6
2015-May-18 00:33N 53°47' E 005°59'1716.8
2015-May-17 23:33N 53°51' E 006°26'3021.2
2015-May-17 22:10N 53°58' E 007°15'4 6.1
2015-May-17 21:33N 53°59' E 007°21'1413.8
2015-May-17 20:33N 53°55' E 007°44'10 9.6
2015-May-17 19:33N 53°51' E 007°59'1414.1
2015-May-17 18:33N 53°43' E 008°18'1010.0
2015-May-17 17:32N 53°36' E 008°31'0 0.0
2015-May-17 16:32N 53°36' E 008°31'0 0.0
2015-May-17 15:32N 53°36' E 008°31'0 0.0
2015-May-17 14:32N 53°36' E 008°31'0 0.0
2015-May-17 13:32N 53°36' E 008°31'0 0.0
2015-May-17 12:32N 53°36' E 008°31'0 0.0
2015-May-17 11:32N 53°36' E 008°31'0 0.0
2015-May-17 10:32N 53°36' E 008°31'0 0.0
2015-May-17 09:32N 53°36' E 008°31'0 0.0
2015-May-17 08:29N 53°36' E 008°31'0 0.0
2015-May-17 07:32N 53°36' E 008°31'0 0.0
2015-May-17 06:29N 53°36' E 008°31'0 0.0
2015-May-17 05:32N 53°36' E 008°31'0 0.0
2015-May-17 04:29N 53°36' E 008°31'0 0.0
2015-May-17 03:32N 53°36' E 008°31'3 3.3
2015-May-17 02:33N 53°38' E 008°27'9 9.0
2015-May-17 01:33N 53°44' E 008°15'1111.1
2015-May-17 00:33N 53°51' E 008°01'6 5.6
2015-May-16 23:32N 53°54' E 007°53'0 0.1
2015-May-16 22:32N 53°54' E 007°53'0 0.0
2015-May-16 21:32N 53°54' E 007°53'0 0.0
2015-May-16 20:32N 53°54' E 007°53'0 0.0
2015-May-16 19:32N 53°54' E 007°53'0 0.0
2015-May-16 18:32N 53°54' E 007°53'0 0.0
2015-May-16 17:29N 53°54' E 007°53'0 0.0
2015-May-16 16:32N 53°54' E 007°53'0 0.0
2015-May-16 15:32N 53°54' E 007°53'0 0.0
2015-May-16 14:32N 53°54' E 007°53'0 0.1
2015-May-16 13:29N 53°54' E 007°53'0 0.1
2015-May-16 12:24N 53°54' E 007°52'2 2.4
2015-May-16 11:33N 53°52' E 007°52'1413.7
2015-May-16 10:33N 53°45' E 008°12'1313.2
2015-May-16 09:34N 53°37' E 008°29'2 2.1
2015-May-16 08:33N 53°35' E 008°31'0 0.0
2015-May-16 07:33N 53°35' E 008°31'0 0.0
2015-May-16 06:33N 53°35' E 008°31'0 0.0
2015-May-16 05:33N 53°35' E 008°31'0 0.0
2015-May-16 04:33N 53°35' E 008°31'0 0.0
2015-May-16 03:33N 53°35' E 008°31'7 7.3
2015-May-16 02:33N 53°40' E 008°22'1312.5
2015-May-16 01:33N 53°49' E 008°07'1312.6
2015-May-16 00:33N 53°53' E 007°46'1010.1
2015-May-15 23:33N 54°00' E 007°35'1312.9
2015-May-15 22:33N 54°12' E 007°25'1313.3
2015-May-15 21:33N 54°24' E 007°17'1313.3
2015-May-15 20:33N 54°37' E 007°08'1413.6
2015-May-15 19:33N 54°49' E 006°60'1413.6
2015-May-15 18:33N 55°02' E 006°51'1413.7
2015-May-15 17:33N 55°15' E 006°43'1413.4
2015-May-15 16:32N 55°28' E 006°44'1313.7
2015-May-15 15:33N 55°41' E 006°49'1513.8
2015-May-15 14:27N 55°56' E 006°55'16512.6
2015-May-15 01:21N 57°49' E 010°34'911.7
2015-May-15 00:33N 57°46' E 010°51'1414.3
2015-May-14 23:33N 57°36' E 011°10'1414.3
2015-May-14 22:34N 57°25' E 011°28'1414.5
2015-May-14 21:34N 57°12' E 011°36'1514.8
2015-May-14 20:33N 56°58' E 011°46'1414.3
2015-May-14 19:34N 56°44' E 011°51'1514.5
2015-May-14 18:33N 56°31' E 011°39'1514.4
2015-May-14 17:33N 56°19' E 011°25'1414.1
2015-May-14 16:32N 56°07' E 011°11'8712.5
2015-May-14 09:34N 54°41' E 010°47'1413.7
2015-May-14 08:33N 54°35' E 011°09'1413.6
2015-May-14 07:34N 54°31' E 011°31'1413.7
2015-May-14 06:33N 54°27' E 011°54'1212.4
2015-May-14 05:33N 54°31' E 012°14'  

Dump ship's entire track history